sensor_id;sensor_type;location;lat;lon;timestamp;P1;durP1;ratioP1;P2;durP2;ratioP2
58362;SDS011;54977;51.510;7.522;2022-11-15T00:00:17;11.45;;;5.13;;
58362;SDS011;54977;51.510;7.522;2022-11-15T00:05:19;10.82;;;5.07;;
58362;SDS011;54977;51.510;7.522;2022-11-15T00:15:24;8.38;;;3.97;;
58362;SDS011;54977;51.510;7.522;2022-11-15T00:20:25;8.65;;;4.72;;
58362;SDS011;54977;51.510;7.522;2022-11-15T00:30:30;10.65;;;4.18;;
58362;SDS011;54977;51.510;7.522;2022-11-15T00:35:32;8.65;;;4.38;;
58362;SDS011;54977;51.510;7.522;2022-11-15T00:40:35;6.07;;;3.58;;
58362;SDS011;54977;51.510;7.522;2022-11-15T00:55:41;10.15;;;4.47;;
58362;SDS011;54977;51.510;7.522;2022-11-15T01:00:45;7.60;;;3.88;;
58362;SDS011;54977;51.510;7.522;2022-11-15T01:05:47;10.15;;;4.35;;
58362;SDS011;54977;51.510;7.522;2022-11-15T01:15:51;7.05;;;3.45;;
58362;SDS011;54977;51.510;7.522;2022-11-15T01:20:53;7.72;;;4.15;;
58362;SDS011;54977;51.510;7.522;2022-11-15T01:25:58;8.63;;;4.03;;
58362;SDS011;54977;51.510;7.522;2022-11-15T01:31:03;10.23;;;4.68;;
58362;SDS011;54977;51.510;7.522;2022-11-15T01:36:12;8.23;;;4.43;;
58362;SDS011;54977;51.510;7.522;2022-11-15T01:41:16;8.60;;;4.22;;
58362;SDS011;54977;51.510;7.522;2022-11-15T01:46:23;5.80;;;4.13;;
58362;SDS011;54977;51.510;7.522;2022-11-15T01:51:32;7.05;;;3.97;;
58362;SDS011;54977;51.510;7.522;2022-11-15T01:56:36;8.15;;;3.67;;
58362;SDS011;54977;51.510;7.522;2022-11-15T02:01:43;5.53;;;3.45;;
58362;SDS011;54977;51.510;7.522;2022-11-15T02:06:45;7.72;;;4.28;;
58362;SDS011;54977;51.510;7.522;2022-11-15T02:11:49;7.85;;;3.80;;
58362;SDS011;54977;51.510;7.522;2022-11-15T02:16:56;11.82;;;4.78;;
58362;SDS011;54977;51.510;7.522;2022-11-15T02:22:04;8.05;;;4.53;;
58362;SDS011;54977;51.510;7.522;2022-11-15T02:27:30;7.88;;;4.07;;
58362;SDS011;54977;51.510;7.522;2022-11-15T02:32:49;8.80;;;4.18;;
58362;SDS011;54977;51.510;7.522;2022-11-15T02:37:56;10.95;;;4.57;;
58362;SDS011;54977;51.510;7.522;2022-11-15T02:43:02;6.80;;;4.00;;
58362;SDS011;54977;51.510;7.522;2022-11-15T02:48:28;7.63;;;4.40;;
58362;SDS011;54977;51.510;7.522;2022-11-15T02:53:32;8.18;;;4.63;;
58362;SDS011;54977;51.510;7.522;2022-11-15T02:58:45;8.05;;;4.68;;
58362;SDS011;54977;51.510;7.522;2022-11-15T03:04:02;9.35;;;4.80;;
58362;SDS011;54977;51.510;7.522;2022-11-15T03:09:18;7.57;;;4.68;;
58362;SDS011;54977;51.510;7.522;2022-11-15T03:14:32;9.55;;;5.32;;
58362;SDS011;54977;51.510;7.522;2022-11-15T03:19:40;9.23;;;4.65;;
58362;SDS011;54977;51.510;7.522;2022-11-15T03:24:46;9.00;;;4.90;;
58362;SDS011;54977;51.510;7.522;2022-11-15T03:29:53;6.05;;;4.10;;
58362;SDS011;54977;51.510;7.522;2022-11-15T03:35:00;8.45;;;4.57;;
58362;SDS011;54977;51.510;7.522;2022-11-15T03:40:06;8.70;;;4.82;;
58362;SDS011;54977;51.510;7.522;2022-11-15T03:45:11;9.60;;;4.90;;
58362;SDS011;54977;51.510;7.522;2022-11-15T03:50:18;7.65;;;4.60;;
58362;SDS011;54977;51.510;7.522;2022-11-15T03:55:21;8.63;;;4.57;;
58362;SDS011;54977;51.510;7.522;2022-11-15T04:00:24;6.28;;;3.42;;
58362;SDS011;54977;51.510;7.522;2022-11-15T04:05:27;6.53;;;3.33;;
58362;SDS011;54977;51.510;7.522;2022-11-15T04:10:29;8.23;;;3.70;;
58362;SDS011;54977;51.510;7.522;2022-11-15T04:15:31;5.28;;;3.30;;
58362;SDS011;54977;51.510;7.522;2022-11-15T04:20:34;5.57;;;3.50;;
58362;SDS011;54977;51.510;7.522;2022-11-15T04:25:53;5.80;;;2.92;;
58362;SDS011;54977;51.510;7.522;2022-11-15T04:30:56;6.28;;;3.45;;
58362;SDS011;54977;51.510;7.522;2022-11-15T04:35:59;6.35;;;4.30;;
58362;SDS011;54977;51.510;7.522;2022-11-15T04:41:19;7.18;;;3.88;;
58362;SDS011;54977;51.510;7.522;2022-11-15T04:46:21;5.82;;;3.65;;
58362;SDS011;54977;51.510;7.522;2022-11-15T04:51:25;6.07;;;3.58;;
58362;SDS011;54977;51.510;7.522;2022-11-15T04:56:27;5.65;;;3.88;;
58362;SDS011;54977;51.510;7.522;2022-11-15T05:01:29;5.88;;;3.45;;
58362;SDS011;54977;51.510;7.522;2022-11-15T05:06:32;5.97;;;3.78;;
58362;SDS011;54977;51.510;7.522;2022-11-15T05:11:34;4.53;;;3.13;;
58362;SDS011;54977;51.510;7.522;2022-11-15T05:16:36;5.82;;;3.60;;
58362;SDS011;54977;51.510;7.522;2022-11-15T05:21:39;5.65;;;3.35;;
58362;SDS011;54977;51.510;7.522;2022-11-15T05:26:41;7.20;;;3.42;;
58362;SDS011;54977;51.510;7.522;2022-11-15T05:31:43;4.78;;;2.92;;
58362;SDS011;54977;51.510;7.522;2022-11-15T05:36:46;6.90;;;3.40;;
58362;SDS011;54977;51.510;7.522;2022-11-15T05:41:50;6.65;;;3.35;;
58362;SDS011;54977;51.510;7.522;2022-11-15T05:46:55;5.90;;;3.53;;
58362;SDS011;54977;51.510;7.522;2022-11-15T05:51:59;6.65;;;3.40;;
58362;SDS011;54977;51.510;7.522;2022-11-15T05:57:03;6.15;;;3.63;;
58362;SDS011;54977;51.510;7.522;2022-11-15T06:02:06;6.97;;;3.70;;
58362;SDS011;54977;51.510;7.522;2022-11-15T06:07:09;6.45;;;3.80;;
58362;SDS011;54977;51.510;7.522;2022-11-15T06:12:11;6.10;;;2.95;;
58362;SDS011;54977;51.510;7.522;2022-11-15T06:17:14;5.80;;;3.08;;
58362;SDS011;54977;51.510;7.522;2022-11-15T06:22:17;5.60;;;3.30;;
58362;SDS011;54977;51.510;7.522;2022-11-15T06:27:19;6.75;;;3.13;;
58362;SDS011;54977;51.510;7.522;2022-11-15T06:37:24;4.85;;;3.00;;
58362;SDS011;54977;51.510;7.522;2022-11-15T06:42:25;4.43;;;2.83;;
58362;SDS011;54977;51.510;7.522;2022-11-15T06:47:27;4.30;;;2.60;;
58362;SDS011;54977;51.510;7.522;2022-11-15T06:52:31;4.55;;;2.45;;
58362;SDS011;54977;51.510;7.522;2022-11-15T06:57:33;3.53;;;2.28;;
58362;SDS011;54977;51.510;7.522;2022-11-15T07:02:35;3.17;;;2.10;;
58362;SDS011;54977;51.510;7.522;2022-11-15T07:07:38;4.57;;;1.90;;
58362;SDS011;54977;51.510;7.522;2022-11-15T07:12:40;3.85;;;2.20;;
58362;SDS011;54977;51.510;7.522;2022-11-15T07:17:42;2.92;;;1.65;;
58362;SDS011;54977;51.510;7.522;2022-11-15T07:22:45;2.00;;;1.25;;
58362;SDS011;54977;51.510;7.522;2022-11-15T07:27:53;4.03;;;1.88;;
58362;SDS011;54977;51.510;7.522;2022-11-15T07:32:56;3.22;;;1.48;;
58362;SDS011;54977;51.510;7.522;2022-11-15T07:38:01;2.47;;;1.40;;
58362;SDS011;54977;51.510;7.522;2022-11-15T07:43:04;3.72;;;1.30;;
58362;SDS011;54977;51.510;7.522;2022-11-15T07:48:06;2.28;;;0.95;;
58362;SDS011;54977;51.510;7.522;2022-11-15T07:53:10;1.98;;;1.20;;
58362;SDS011;54977;51.510;7.522;2022-11-15T07:58:12;1.83;;;0.98;;
58362;SDS011;54977;51.510;7.522;2022-11-15T08:03:14;3.63;;;1.20;;
58362;SDS011;54977;51.510;7.522;2022-11-15T08:08:19;2.90;;;1.17;;
58362;SDS011;54977;51.510;7.522;2022-11-15T08:13:20;2.47;;;1.02;;
58362;SDS011;54977;51.510;7.522;2022-11-15T08:18:22;3.10;;;1.10;;
58362;SDS011;54977;51.510;7.522;2022-11-15T08:23:25;2.40;;;1.10;;
58362;SDS011;54977;51.510;7.522;2022-11-15T08:28:28;2.55;;;1.20;;
58362;SDS011;54977;51.510;7.522;2022-11-15T08:33:30;3.15;;;0.85;;
58362;SDS011;54977;51.510;7.522;2022-11-15T08:38:34;2.45;;;0.90;;
58362;SDS011;54977;51.510;7.522;2022-11-15T08:43:36;2.67;;;1.17;;
58362;SDS011;54977;51.510;7.522;2022-11-15T08:48:38;2.35;;;0.98;;
58362;SDS011;54977;51.510;7.522;2022-11-15T08:53:41;2.10;;;0.98;;
58362;SDS011;54977;51.510;7.522;2022-11-15T08:58:43;1.92;;;0.68;;
58362;SDS011;54977;51.510;7.522;2022-11-15T09:03:45;1.50;;;0.63;;
58362;SDS011;54977;51.510;7.522;2022-11-15T09:08:48;1.50;;;0.57;;
58362;SDS011;54977;51.510;7.522;2022-11-15T09:13:50;2.03;;;0.70;;
58362;SDS011;54977;51.510;7.522;2022-11-15T09:18:52;1.83;;;0.68;;
58362;SDS011;54977;51.510;7.522;2022-11-15T09:23:55;2.97;;;0.73;;
58362;SDS011;54977;51.510;7.522;2022-11-15T09:28:57;1.70;;;0.60;;
58362;SDS011;54977;51.510;7.522;2022-11-15T09:33:59;1.73;;;0.60;;
58362;SDS011;54977;51.510;7.522;2022-11-15T09:39:02;1.27;;;0.50;;
58362;SDS011;54977;51.510;7.522;2022-11-15T09:44:07;1.23;;;0.60;;
58362;SDS011;54977;51.510;7.522;2022-11-15T09:49:21;1.70;;;0.88;;
58362;SDS011;54977;51.510;7.522;2022-11-15T09:54:28;2.25;;;0.40;;
58362;SDS011;54977;51.510;7.522;2022-11-15T10:04:53;1.42;;;0.50;;
58362;SDS011;54977;51.510;7.522;2022-11-15T10:09:58;2.38;;;1.05;;
58362;SDS011;54977;51.510;7.522;2022-11-15T10:15:06;1.23;;;0.52;;
58362;SDS011;54977;51.510;7.522;2022-11-15T10:20:16;1.23;;;0.40;;
58362;SDS011;54977;51.510;7.522;2022-11-15T10:25:23;3.08;;;0.47;;
58362;SDS011;54977;51.510;7.522;2022-11-15T10:30:31;1.08;;;0.50;;
58362;SDS011;54977;51.510;7.522;2022-11-15T10:35:35;2.47;;;0.45;;
58362;SDS011;54977;51.510;7.522;2022-11-15T10:40:38;1.95;;;0.50;;
58362;SDS011;54977;51.510;7.522;2022-11-15T10:45:43;2.28;;;0.45;;
58362;SDS011;54977;51.510;7.522;2022-11-15T10:50:47;2.00;;;0.63;;
58362;SDS011;54977;51.510;7.522;2022-11-15T10:55:53;1.70;;;0.50;;
58362;SDS011;54977;51.510;7.522;2022-11-15T11:00:56;1.00;;;0.50;;
58362;SDS011;54977;51.510;7.522;2022-11-15T11:06:11;1.65;;;0.40;;
58362;SDS011;54977;51.510;7.522;2022-11-15T11:11:16;1.02;;;0.28;;
58362;SDS011;54977;51.510;7.522;2022-11-15T11:16:26;0.70;;;0.40;;
58362;SDS011;54977;51.510;7.522;2022-11-15T11:21:46;1.77;;;0.73;;
58362;SDS011;54977;51.510;7.522;2022-11-15T11:26:57;1.52;;;0.60;;
58362;SDS011;54977;51.510;7.522;2022-11-15T11:32:09;1.05;;;0.50;;
58362;SDS011;54977;51.510;7.522;2022-11-15T11:37:28;1.10;;;0.40;;
58362;SDS011;54977;51.510;7.522;2022-11-15T11:42:38;1.30;;;0.50;;
58362;SDS011;54977;51.510;7.522;2022-11-15T11:47:51;1.15;;;0.47;;
58362;SDS011;54977;51.510;7.522;2022-11-15T11:52:57;0.52;;;0.30;;
58362;SDS011;54977;51.510;7.522;2022-11-15T11:58:09;1.55;;;0.30;;
58362;SDS011;54977;51.510;7.522;2022-11-15T12:03:18;0.45;;;0.20;;
58362;SDS011;54977;51.510;7.522;2022-11-15T12:08:31;1.05;;;0.30;;
58362;SDS011;54977;51.510;7.522;2022-11-15T12:13:42;1.77;;;0.30;;
58362;SDS011;54977;51.510;7.522;2022-11-15T12:18:47;0.57;;;0.30;;
58362;SDS011;54977;51.510;7.522;2022-11-15T12:23:53;2.47;;;0.20;;
58362;SDS011;54977;51.510;7.522;2022-11-15T12:29:01;1.95;;;0.50;;
58362;SDS011;54977;51.510;7.522;2022-11-15T12:34:13;2.63;;;0.40;;
58362;SDS011;54977;51.510;7.522;2022-11-15T12:45:22;2.55;;;0.30;;
58362;SDS011;54977;51.510;7.522;2022-11-15T13:07:00;1.23;;;0.32;;
58362;SDS011;54977;51.510;7.522;2022-11-15T13:12:06;1.38;;;0.50;;
58362;SDS011;54977;51.510;7.522;2022-11-15T13:22:38;1.85;;;0.45;;
58362;SDS011;54977;51.510;7.522;2022-11-15T13:27:54;1.17;;;0.40;;
58362;SDS011;54977;51.510;7.522;2022-11-15T13:33:00;1.63;;;0.40;;
58362;SDS011;54977;51.510;7.522;2022-11-15T13:38:11;4.13;;;0.30;;
58362;SDS011;54977;51.510;7.522;2022-11-15T13:43:26;0.88;;;0.40;;
58362;SDS011;54977;51.510;7.522;2022-11-15T13:48:36;0.80;;;0.30;;
58362;SDS011;54977;51.510;7.522;2022-11-15T13:53:40;2.42;;;0.35;;
58362;SDS011;54977;51.510;7.522;2022-11-15T13:58:47;1.45;;;0.40;;
58362;SDS011;54977;51.510;7.522;2022-11-15T14:03:52;2.08;;;0.50;;
58362;SDS011;54977;51.510;7.522;2022-11-15T14:08:58;0.70;;;0.35;;
58362;SDS011;54977;51.510;7.522;2022-11-15T14:14:15;2.75;;;0.40;;
58362;SDS011;54977;51.510;7.522;2022-11-15T14:19:35;2.80;;;0.50;;
58362;SDS011;54977;51.510;7.522;2022-11-15T14:24:38;1.42;;;0.63;;
58362;SDS011;54977;51.510;7.522;2022-11-15T14:29:41;1.42;;;0.55;;
58362;SDS011;54977;51.510;7.522;2022-11-15T14:34:44;1.42;;;0.63;;
58362;SDS011;54977;51.510;7.522;2022-11-15T14:39:47;2.03;;;0.57;;
58362;SDS011;54977;51.510;7.522;2022-11-15T14:44:49;1.77;;;0.88;;
58362;SDS011;54977;51.510;7.522;2022-11-15T14:49:52;4.45;;;0.68;;
58362;SDS011;54977;51.510;7.522;2022-11-15T14:54:54;6.07;;;0.88;;
58362;SDS011;54977;51.510;7.522;2022-11-15T14:59:58;1.48;;;0.60;;
58362;SDS011;54977;51.510;7.522;2022-11-15T15:05:01;3.88;;;0.90;;
58362;SDS011;54977;51.510;7.522;2022-11-15T15:10:13;3.03;;;0.80;;
58362;SDS011;54977;51.510;7.522;2022-11-15T15:15:16;2.60;;;0.80;;
58362;SDS011;54977;51.510;7.522;2022-11-15T15:20:24;2.03;;;0.88;;
58362;SDS011;54977;51.510;7.522;2022-11-15T15:25:26;3.10;;;1.48;;
58362;SDS011;54977;51.510;7.522;2022-11-15T15:30:30;2.75;;;0.95;;
58362;SDS011;54977;51.510;7.522;2022-11-15T15:35:34;1.15;;;0.50;;
58362;SDS011;54977;51.510;7.522;2022-11-15T15:40:36;3.25;;;0.95;;
58362;SDS011;54977;51.510;7.522;2022-11-15T15:45:38;4.32;;;0.88;;
58362;SDS011;54977;51.510;7.522;2022-11-15T15:50:43;5.30;;;1.58;;
58362;SDS011;54977;51.510;7.522;2022-11-15T15:55:45;2.92;;;0.80;;
58362;SDS011;54977;51.510;7.522;2022-11-15T16:00:46;1.65;;;0.77;;
58362;SDS011;54977;51.510;7.522;2022-11-15T16:05:50;2.90;;;0.90;;
58362;SDS011;54977;51.510;7.522;2022-11-15T16:10:52;2.40;;;0.85;;
58362;SDS011;54977;51.510;7.522;2022-11-15T16:15:54;2.47;;;0.70;;
58362;SDS011;54977;51.510;7.522;2022-11-15T16:20:57;3.95;;;1.20;;
58362;SDS011;54977;51.510;7.522;2022-11-15T16:26:00;2.42;;;0.80;;
58362;SDS011;54977;51.510;7.522;2022-11-15T16:31:04;1.65;;;0.60;;
58362;SDS011;54977;51.510;7.522;2022-11-15T16:36:12;3.83;;;1.00;;
58362;SDS011;54977;51.510;7.522;2022-11-15T16:41:20;4.78;;;1.10;;
58362;SDS011;54977;51.510;7.522;2022-11-15T16:46:23;2.22;;;0.98;;
58362;SDS011;54977;51.510;7.522;2022-11-15T16:51:27;3.25;;;1.38;;
58362;SDS011;54977;51.510;7.522;2022-11-15T16:56:29;2.38;;;1.10;;
58362;SDS011;54977;51.510;7.522;2022-11-15T17:01:32;1.38;;;0.95;;
58362;SDS011;54977;51.510;7.522;2022-11-15T17:06:37;2.42;;;1.00;;
58362;SDS011;54977;51.510;7.522;2022-11-15T17:11:39;2.58;;;1.00;;
58362;SDS011;54977;51.510;7.522;2022-11-15T17:16:42;2.85;;;1.15;;
58362;SDS011;54977;51.510;7.522;2022-11-15T17:21:46;2.13;;;1.00;;
58362;SDS011;54977;51.510;7.522;2022-11-15T17:26:49;2.20;;;1.02;;
58362;SDS011;54977;51.510;7.522;2022-11-15T17:31:51;1.90;;;0.80;;
58362;SDS011;54977;51.510;7.522;2022-11-15T17:36:54;1.77;;;0.75;;
58362;SDS011;54977;51.510;7.522;2022-11-15T17:41:56;2.13;;;0.75;;
58362;SDS011;54977;51.510;7.522;2022-11-15T17:46:58;3.13;;;0.88;;
58362;SDS011;54977;51.510;7.522;2022-11-15T17:52:01;3.13;;;0.98;;
58362;SDS011;54977;51.510;7.522;2022-11-15T17:57:03;2.28;;;0.88;;
58362;SDS011;54977;51.510;7.522;2022-11-15T18:02:05;2.17;;;1.00;;
58362;SDS011;54977;51.510;7.522;2022-11-15T18:07:08;2.55;;;0.90;;
58362;SDS011;54977;51.510;7.522;2022-11-15T18:12:11;3.38;;;1.02;;
58362;SDS011;54977;51.510;7.522;2022-11-15T18:17:13;2.25;;;0.88;;
58362;SDS011;54977;51.510;7.522;2022-11-15T18:22:18;1.63;;;0.60;;
58362;SDS011;54977;51.510;7.522;2022-11-15T18:27:21;2.10;;;1.10;;
58362;SDS011;54977;51.510;7.522;2022-11-15T18:32:22;1.58;;;0.90;;
58362;SDS011;54977;51.510;7.522;2022-11-15T18:37:26;2.05;;;0.82;;
58362;SDS011;54977;51.510;7.522;2022-11-15T18:42:27;2.58;;;1.13;;
58362;SDS011;54977;51.510;7.522;2022-11-15T18:47:32;1.95;;;1.02;;
58362;SDS011;54977;51.510;7.522;2022-11-15T18:52:35;2.20;;;1.10;;
58362;SDS011;54977;51.510;7.522;2022-11-15T18:57:37;2.45;;;1.27;;
58362;SDS011;54977;51.510;7.522;2022-11-15T19:02:39;2.08;;;1.00;;
58362;SDS011;54977;51.510;7.522;2022-11-15T19:07:43;2.70;;;1.42;;
58362;SDS011;54977;51.510;7.522;2022-11-15T19:12:48;4.30;;;1.80;;
58362;SDS011;54977;51.510;7.522;2022-11-15T19:17:49;3.60;;;1.70;;
58362;SDS011;54977;51.510;7.522;2022-11-15T19:22:53;4.82;;;2.45;;
58362;SDS011;54977;51.510;7.522;2022-11-15T19:27:55;4.78;;;2.33;;
58362;SDS011;54977;51.510;7.522;2022-11-15T19:32:57;4.40;;;1.70;;
58362;SDS011;54977;51.510;7.522;2022-11-15T19:38:00;3.95;;;1.73;;
58362;SDS011;54977;51.510;7.522;2022-11-15T19:43:02;3.97;;;2.20;;
58362;SDS011;54977;51.510;7.522;2022-11-15T19:48:04;2.53;;;1.63;;
58362;SDS011;54977;51.510;7.522;2022-11-15T19:53:08;2.55;;;1.65;;
58362;SDS011;54977;51.510;7.522;2022-11-15T19:58:10;3.58;;;1.70;;
58362;SDS011;54977;51.510;7.522;2022-11-15T20:03:11;4.43;;;2.13;;
58362;SDS011;54977;51.510;7.522;2022-11-15T20:08:15;3.63;;;2.17;;
58362;SDS011;54977;51.510;7.522;2022-11-15T20:13:16;4.25;;;2.15;;
58362;SDS011;54977;51.510;7.522;2022-11-15T20:18:18;3.50;;;1.90;;
58362;SDS011;54977;51.510;7.522;2022-11-15T20:23:22;3.58;;;2.13;;
58362;SDS011;54977;51.510;7.522;2022-11-15T20:28:25;5.20;;;1.88;;
58362;SDS011;54977;51.510;7.522;2022-11-15T20:33:28;2.60;;;1.50;;
58362;SDS011;54977;51.510;7.522;2022-11-15T20:38:31;5.55;;;1.73;;
58362;SDS011;54977;51.510;7.522;2022-11-15T20:43:33;3.22;;;1.73;;
58362;SDS011;54977;51.510;7.522;2022-11-15T20:48:35;3.80;;;1.65;;
58362;SDS011;54977;51.510;7.522;2022-11-15T20:53:38;3.63;;;1.70;;
58362;SDS011;54977;51.510;7.522;2022-11-15T20:58:41;2.72;;;1.33;;
58362;SDS011;54977;51.510;7.522;2022-11-15T21:03:44;3.13;;;1.50;;
58362;SDS011;54977;51.510;7.522;2022-11-15T21:08:48;4.18;;;1.45;;
58362;SDS011;54977;51.510;7.522;2022-11-15T21:14:07;3.28;;;1.33;;
58362;SDS011;54977;51.510;7.522;2022-11-15T21:19:09;2.80;;;1.35;;
58362;SDS011;54977;51.510;7.522;2022-11-15T21:24:13;2.58;;;1.40;;
58362;SDS011;54977;51.510;7.522;2022-11-15T21:29:14;2.45;;;1.13;;
58362;SDS011;54977;51.510;7.522;2022-11-15T21:34:17;3.88;;;1.55;;
58362;SDS011;54977;51.510;7.522;2022-11-15T21:39:20;2.13;;;1.10;;
58362;SDS011;54977;51.510;7.522;2022-11-15T21:44:22;2.45;;;1.50;;
58362;SDS011;54977;51.510;7.522;2022-11-15T21:49:24;3.92;;;0.95;;
58362;SDS011;54977;51.510;7.522;2022-11-15T21:54:27;2.55;;;1.30;;
58362;SDS011;54977;51.510;7.522;2022-11-15T21:59:29;5.82;;;2.17;;
58362;SDS011;54977;51.510;7.522;2022-11-15T22:04:31;2.15;;;1.10;;
58362;SDS011;54977;51.510;7.522;2022-11-15T22:09:34;3.55;;;1.50;;
58362;SDS011;54977;51.510;7.522;2022-11-15T22:14:36;2.22;;;0.98;;
58362;SDS011;54977;51.510;7.522;2022-11-15T22:19:38;5.95;;;1.10;;
58362;SDS011;54977;51.510;7.522;2022-11-15T22:24:41;1.75;;;0.73;;
58362;SDS011;54977;51.510;7.522;2022-11-15T22:29:44;2.53;;;1.10;;
58362;SDS011;54977;51.510;7.522;2022-11-15T22:34:45;2.47;;;1.00;;
58362;SDS011;54977;51.510;7.522;2022-11-15T22:39:49;2.88;;;1.00;;
58362;SDS011;54977;51.510;7.522;2022-11-15T22:44:51;2.42;;;1.02;;
58362;SDS011;54977;51.510;7.522;2022-11-15T22:49:53;4.22;;;1.48;;
58362;SDS011;54977;51.510;7.522;2022-11-15T22:54:56;1.83;;;0.88;;
58362;SDS011;54977;51.510;7.522;2022-11-15T22:59:58;2.42;;;1.10;;
58362;SDS011;54977;51.510;7.522;2022-11-15T23:05:00;2.90;;;1.42;;
58362;SDS011;54977;51.510;7.522;2022-11-15T23:10:04;2.35;;;1.15;;
58362;SDS011;54977;51.510;7.522;2022-11-15T23:15:24;2.85;;;1.45;;
58362;SDS011;54977;51.510;7.522;2022-11-15T23:20:46;2.45;;;1.20;;
58362;SDS011;54977;51.510;7.522;2022-11-15T23:25:57;3.63;;;1.55;;
58362;SDS011;54977;51.510;7.522;2022-11-15T23:31:02;3.03;;;1.75;;
58362;SDS011;54977;51.510;7.522;2022-11-15T23:36:23;4.75;;;1.65;;
58362;SDS011;54977;51.510;7.522;2022-11-15T23:41:26;3.50;;;1.70;;
58362;SDS011;54977;51.510;7.522;2022-11-15T23:46:28;3.55;;;1.73;;
58362;SDS011;54977;51.510;7.522;2022-11-15T23:51:30;4.65;;;1.70;;
58362;SDS011;54977;51.510;7.522;2022-11-15T23:56:34;3.72;;;2.22;;
